Niagara Falls, NY

1:14 PM EST on February 07, 2016 (GMT -0500)
37th st | | Change Station
CLOSE
Current Station
Personal Weather Station
Location: Niagara Falls, NY
Elevation: 577 ft
Nearby Weather Stations

Elev 577 ft 43.09 °N, 79.02 °W | Updated 1 minute ago

Clear
Clear
47.3 °F
Feels Like 46 °F
N
3.7
Wind Variable Wind from NNE

Today
High -- | Low -- °F
--% Chance of Precip.
Yesterday
High -- | Low -- °F
Precip. -- in
Pressure 30.01 in
Visibility 10.0 miles
Clouds Few 20000 ft
Scattered Clouds 25000 ft
Windchill 46 °F
Dew Point 32 °F
Humidity 54%
Rainfall 0.00 in
Snow Depth Not available.
7:25 AM 5:36 PM
Waning Crescent, 1% visible
METAR KIAG 071753Z 16008KT 10SM FEW200 SCT250 07/M03 A2998 RMK AO2 SLP163 T00721028 10072 20000 58021
Pressure 30.01 in
Visibility 10.0 miles
Clouds Few 20000 ft
Scattered Clouds 25000 ft
Windchill 46 °F
Dew Point 32 °F
Humidity 54%
Rainfall 0.00 in
Snow Depth Not available.
7:25 AM 5:36 PM
Waning Crescent, 1% visible
METAR KIAG 071753Z 16008KT 10SM FEW200 SCT250 07/M03 A2998 RMK AO2 SLP163 T00721028 10072 20000 58021

10-Day Weather Forecast

Almanac

Astronomy

Feb. 07, 2016 Rise Set
Actual Time
Civil Twilight
Nautical Twilight
Astronomical Twilight
Moon
Length of Visible Light
Length of Day
Tomorrow will be .
, % of the Moon is Illuminated

Today's Extremes

State Highs State Lows

Community

WunderPhotos

Upload Photos

1,891,274 photos uploaded!

WunderBlog® & News

Nearby

Air Quality

  Air Quality AQ Index Pollutant
Not available.

Snow Depth

Station Depth Elevation

Earthquake Activity

City Distance Mag. Time & Date
Minimum magnitude displayed is 2.5.

Coastal Water Temperatures

Place Temperature

Stations

Nearby Weather Stations

Station Location Temp. Windchill Dew Point Humidity Wind Precip. Elev Updated Type
                   

Watches & Warnings

There are currently no watches in effect.